Harrisburg, SD

8:51 AM CST on March 06, 2015 (GMT -0600)
Lewis Park | Change Station
CLOSE
Current Station
Personal Weather Station
Location: Sioux Falls, SD
Elevation: 1500 ft
Nearby Weather Stations

Elev 1500 ft 43.50 °N, 96.70 °W | Updated 7 minutes ago

Clear
Clear
31.6 °F
Feels Like 32 °F
N
2.7
Wind Variable Wind from West

Today
High -- | Low -- °F
--% Chance of Precip.
Yesterday
High -- | Low -- °F
Precip. -- in
6:55 AM 6:21 PM
Full, 99% visible
Pressure 30.15 in
Visibility 10.0 miles
Clouds Few 8000 ft
Windchill 32 °F
Dew Point 20 °F
Humidity 61%
Rainfall in
Snow Depth Not available.
UV 0 out of 12
Pollen .40 out of 12
Air Quality Not available.
Flu Activity Not available.
METAR KFSD 061356Z 27005KT 10SM FEW080 M05/M10 A3009 RMK AO2 SLP210 T10501100

More Conditions Fewer Conditions

Pressure 30.15 in
Visibility 10.0 miles
Clouds Few 8000 ft
Windchill 32 °F
Dew Point 20 °F
Humidity 61%
Rainfall in
Snow Depth Not available.
UV 0 out of 12
Pollen .40 out of 12
Air Quality Not available.
Flu Activity Not available.
METAR KFSD 061356Z 27005KT 10SM FEW080 M05/M10 A3009 RMK AO2 SLP210 T10501100

More Conditions Fewer Conditions

10-Day Weather Forecast

Almanac

Astronomy

Mar. 06, 2015 Rise Set
Actual Time
Civil Twilight
Nautical Twilight
Astronomical Twilight
Moon
Length of Visible Light
Length of Day
Tomorrow will be .
, % of the Moon is Illuminated

Today's Extremes

State Highs State Lows

Community

WunderPhotos

Upload Photos

1,803,285 photos uploaded!

WunderBlogs® & News

Nearby

Air Quality

  Air Quality AQ Index Pollutant
Not available.

Snow Depth

Station Depth Elevation

Earthquake Activity

City Distance Mag. Time & Date
Minimum magnitude displayed is 2.5.

Coastal Water Temperatures

Place Temperature

Nearby Weather Stations